createdAt,value
2023-04-21T05:04:47.585Z,8.27
2023-04-21T05:09:49.241Z,7.97
2023-04-21T05:14:50.664Z,8.07
2023-04-21T05:19:52.190Z,8.15
2023-04-21T05:24:53.594Z,8.65
2023-04-21T05:29:55.295Z,8.18
2023-04-21T05:34:56.887Z,6.93
2023-04-21T05:39:58.327Z,6.95
2023-04-21T05:44:59.876Z,7.38
2023-04-21T05:50:02.406Z,9.27
2023-04-21T05:55:04.183Z,8.45
2023-04-21T06:00:07.042Z,9.07
2023-04-21T06:10:11.548Z,9.23
2023-04-21T06:15:13.139Z,9.90
2023-04-21T06:20:14.612Z,9.13
2023-04-21T06:25:16.214Z,8.98
2023-04-21T06:30:18.057Z,9.43
2023-04-21T06:35:20.377Z,8.07
2023-04-21T06:40:21.874Z,8.10
2023-04-21T06:45:23.459Z,7.97
2023-04-21T06:50:24.893Z,8.25
2023-04-21T06:55:26.398Z,8.43
2023-04-21T07:00:27.993Z,8.50
2023-04-21T07:05:29.535Z,7.93
2023-04-21T07:10:31.884Z,7.97
2023-04-21T07:15:33.307Z,7.07
2023-04-21T07:20:34.822Z,6.13
2023-04-21T07:25:36.650Z,6.20
2023-04-21T07:30:38.141Z,5.40
2023-04-21T07:35:39.855Z,5.35
2023-04-21T07:40:41.375Z,5.78
2023-04-21T07:45:42.921Z,5.10
2023-04-21T07:50:44.987Z,4.97
2023-04-21T07:55:46.420Z,4.50
2023-04-21T08:00:48.452Z,4.70
2023-04-21T08:05:50.262Z,4.90
2023-04-21T08:10:52.360Z,5.70
2023-04-21T08:15:54.357Z,5.18
2023-04-21T08:20:58.115Z,4.30
2023-04-21T08:26:01.050Z,4.38
2023-04-21T08:31:02.897Z,4.10
2023-04-21T08:36:12.248Z,4.20
2023-04-21T08:41:20.526Z,4.32
2023-04-21T08:46:23.868Z,3.88
2023-04-21T08:51:27.919Z,4.00
2023-04-21T08:56:29.457Z,3.88
2023-04-21T09:01:31.136Z,3.97
2023-04-21T09:06:46.160Z,4.67
2023-04-21T09:12:01.419Z,3.80
2023-04-21T09:17:04.511Z,3.40
2023-04-21T09:22:06.694Z,3.55
2023-04-21T09:27:10.038Z,3.63
2023-04-21T09:32:12.459Z,2.65
2023-04-21T09:42:20.505Z,2.88
2023-04-21T09:47:22.916Z,2.63
2023-04-21T09:52:28.795Z,3.28
2023-04-21T13:10:02.633Z,2.67
2023-04-21T13:15:04.604Z,2.67
2023-04-21T13:20:07.243Z,2.85
2023-04-21T13:25:09.180Z,2.53
2023-04-21T13:30:11.856Z,2.90
2023-04-21T13:35:13.341Z,2.13
2023-04-21T13:40:14.803Z,2.63
2023-04-21T13:50:18.496Z,2.50
2023-04-21T13:55:20.653Z,2.53
2023-04-21T14:00:22.244Z,2.47
2023-04-21T14:05:23.939Z,3.38
2023-04-21T14:10:25.657Z,2.50
2023-04-21T14:15:27.128Z,3.10
2023-04-21T14:20:29.290Z,2.75
2023-04-21T14:25:30.755Z,3.53
2023-04-21T14:30:32.336Z,2.45
2023-04-21T14:35:36.824Z,2.35
2023-04-21T14:40:38.287Z,2.53
2023-04-21T14:45:41.012Z,2.78
2023-04-21T14:50:42.942Z,2.72
2023-04-21T14:55:44.377Z,2.60
2023-04-21T15:00:46.036Z,3.83
2023-04-21T15:05:47.502Z,2.63
2023-04-21T15:10:49.085Z,2.97
2023-04-21T15:15:53.461Z,2.35
2023-04-21T15:20:55.309Z,3.28
2023-04-21T15:25:57.833Z,2.60
2023-04-21T15:30:59.319Z,2.30
2023-04-21T15:36:00.825Z,2.30
2023-04-21T15:41:02.311Z,3.15
2023-04-21T15:46:12.765Z,2.70
2023-04-21T15:51:14.567Z,2.47
2023-04-21T16:01:19.729Z,2.83
2023-04-21T16:06:21.567Z,2.80
2023-04-21T16:11:25.022Z,3.42
2023-04-21T16:16:26.674Z,2.63
2023-04-21T16:21:28.230Z,2.72
2023-04-21T16:26:33.028Z,2.70
2023-04-21T16:31:34.541Z,3.30
2023-04-21T16:36:36.154Z,3.35
2023-04-21T16:41:37.697Z,4.50
2023-04-21T16:46:39.335Z,5.40
2023-04-21T16:51:44.578Z,5.63
2023-04-21T16:56:46.284Z,5.05
2023-04-21T17:01:47.727Z,5.95
2023-04-21T17:06:49.194Z,5.65
2023-04-21T17:11:50.640Z,5.85
2023-04-21T17:16:52.284Z,5.33
2023-04-21T17:21:53.714Z,5.68
2023-04-21T17:26:55.273Z,5.60
2023-04-21T17:31:56.801Z,5.67
2023-04-21T17:36:58.338Z,5.75
2023-04-21T17:41:59.792Z,5.87
2023-04-21T17:47:02.054Z,5.57
2023-04-21T17:57:04.913Z,6.30
2023-04-21T18:02:07.359Z,6.27
2023-04-21T18:07:09.164Z,7.28
2023-04-21T18:12:10.938Z,6.67
2023-04-21T18:17:13.063Z,7.15
2023-04-21T18:22:16.331Z,7.18
2023-04-21T18:27:17.754Z,6.45
2023-04-21T18:32:19.175Z,6.65
2023-04-21T18:37:20.853Z,6.40
2023-04-21T18:42:22.289Z,6.87
2023-04-21T18:47:23.830Z,7.38
2023-04-21T18:52:25.479Z,7.93
2023-04-21T18:57:27.623Z,8.67
2023-04-21T19:02:30.012Z,8.07
2023-04-21T19:12:34.095Z,7.75
2023-04-21T19:17:35.586Z,7.60
2023-04-21T19:22:37.358Z,8.00
2023-04-21T19:27:40.120Z,8.10
2023-04-21T19:32:41.583Z,8.10
2023-04-21T19:37:43.786Z,7.93
2023-04-21T19:42:45.449Z,7.20
2023-04-21T19:47:47.581Z,7.63
2023-04-21T19:52:49.058Z,7.47
2023-04-21T19:57:50.927Z,7.35
2023-04-21T20:02:52.401Z,7.17
2023-04-21T20:07:54.100Z,7.97
2023-04-21T20:12:55.544Z,8.23
2023-04-21T20:17:57.316Z,7.95
2023-04-21T20:22:59.858Z,8.67
2023-04-21T20:33:02.721Z,8.40
2023-04-21T20:38:05.491Z,8.43
2023-04-21T20:48:09.302Z,7.95
2023-04-21T20:53:10.735Z,8.93
2023-04-21T20:58:12.259Z,8.75
2023-04-21T21:03:14.155Z,8.30
2023-04-21T21:08:15.728Z,9.07
2023-04-21T21:13:17.180Z,8.93
2023-04-21T21:18:18.640Z,8.05
2023-04-21T21:23:20.027Z,8.20
2023-04-21T21:28:21.458Z,10.30
2023-04-21T21:33:23.047Z,6.25
2023-04-21T21:38:24.579Z,6.95
2023-04-21T21:43:26.009Z,6.38
2023-04-21T21:48:27.452Z,6.70
2023-04-21T21:53:28.871Z,6.97
2023-04-21T21:58:30.897Z,5.68
